createdAt,value
2018-09-22T00:02:00.238Z,14.72
2018-09-22T00:04:28.438Z,14.52
2018-09-22T00:06:56.699Z,14.64
2018-09-22T00:09:24.920Z,14.59
2018-09-22T00:11:53.154Z,14.58
2018-09-22T00:14:21.411Z,14.58
2018-09-22T00:16:49.692Z,14.48
2018-09-22T00:19:17.922Z,14.46
2018-09-22T00:21:46.225Z,14.81
2018-09-22T00:24:14.423Z,15.07
2018-09-22T00:26:42.719Z,15.14
2018-09-22T00:29:11.071Z,15.01
2018-09-22T00:31:39.294Z,14.81
2018-09-22T00:34:07.548Z,14.97
2018-09-22T00:36:35.802Z,14.86
2018-09-22T00:39:04.945Z,14.91
2018-09-22T00:41:33.199Z,14.96
2018-09-22T00:44:01.450Z,14.85
2018-09-22T00:46:29.694Z,14.78
2018-09-22T00:48:57.965Z,14.99
2018-09-22T00:51:26.221Z,14.91
2018-09-22T00:53:54.448Z,14.93
2018-09-22T00:56:22.707Z,14.74
2018-09-22T00:58:50.962Z,14.76
2018-09-22T01:01:19.210Z,14.65
2018-09-22T01:03:47.481Z,14.97
2018-09-22T01:06:15.766Z,14.88
2018-09-22T01:08:44.034Z,14.61
2018-09-22T01:11:12.319Z,14.53
2018-09-22T01:13:40.569Z,14.76
2018-09-22T01:16:08.840Z,14.60
2018-09-22T01:18:37.122Z,14.85
2018-09-22T01:21:05.413Z,15.01
2018-09-22T01:23:33.663Z,14.96
2018-09-22T01:26:01.939Z,14.81
2018-09-22T01:28:30.178Z,14.83
2018-09-22T01:30:58.423Z,14.77
2018-09-22T01:33:26.665Z,14.79
2018-09-22T01:35:54.894Z,14.76
2018-09-22T01:38:23.162Z,14.98
2018-09-22T01:40:51.399Z,14.85
2018-09-22T01:43:19.621Z,14.43
2018-09-22T01:45:47.914Z,14.59
2018-09-22T01:48:16.173Z,14.70
2018-09-22T01:50:44.422Z,14.67
2018-09-22T01:53:12.695Z,14.73
2018-09-22T01:55:40.966Z,14.35
2018-09-22T01:58:09.189Z,14.55
2018-09-22T02:00:37.450Z,14.54
2018-09-22T02:03:05.709Z,14.39
2018-09-22T02:05:33.969Z,14.43
2018-09-22T02:08:02.217Z,14.19
2018-09-22T02:10:30.515Z,14.20
2018-09-22T02:12:58.713Z,14.59
2018-09-22T02:15:26.947Z,14.50
2018-09-22T02:17:55.221Z,14.14
2018-09-22T02:20:23.492Z,14.45
2018-09-22T02:22:51.738Z,14.54
2018-09-22T02:25:19.995Z,14.68
2018-09-22T02:27:48.230Z,14.55
2018-09-22T02:30:16.486Z,14.72
2018-09-22T02:32:44.716Z,14.67
2018-09-22T02:35:12.960Z,14.68
2018-09-22T02:37:41.226Z,14.40
2018-09-22T02:40:09.462Z,14.53
2018-09-22T02:42:37.726Z,14.59
2018-09-22T02:45:06.498Z,14.47
2018-09-22T02:47:34.739Z,14.54
2018-09-22T02:50:03.015Z,14.53
2018-09-22T02:52:31.297Z,14.59
2018-09-22T02:54:59.966Z,14.19
2018-09-22T02:57:28.210Z,14.41
2018-09-22T02:59:56.464Z,14.34
2018-09-22T03:02:24.721Z,14.43
2018-09-22T03:04:52.961Z,14.35
2018-09-22T03:07:21.209Z,14.57
2018-09-22T03:09:49.442Z,14.54
2018-09-22T03:12:17.694Z,14.30
2018-09-22T03:14:46.011Z,14.57
2018-09-22T03:17:14.242Z,14.63
2018-09-22T03:19:42.502Z,14.51
2018-09-22T03:22:10.755Z,14.60
2018-09-22T03:24:38.973Z,14.66
2018-09-22T03:27:07.319Z,14.65
2018-09-22T03:29:35.587Z,14.55
2018-09-22T03:32:03.869Z,14.50
2018-09-22T03:34:32.123Z,14.09
2018-09-22T03:37:00.378Z,14.26
2018-09-22T03:39:28.651Z,14.12
2018-09-22T03:41:56.911Z,14.48
2018-09-22T03:44:25.189Z,14.19
2018-09-22T03:46:53.418Z,14.03
2018-09-22T03:49:21.659Z,14.25
2018-09-22T03:51:49.905Z,14.12
2018-09-22T03:54:18.129Z,14.06
2018-09-22T03:56:46.402Z,14.13
2018-09-22T03:59:14.674Z,14.46
2018-09-22T04:01:42.915Z,14.25
2018-09-22T04:04:11.181Z,14.29
2018-09-22T04:06:39.398Z,14.24
2018-09-22T04:09:08.170Z,14.07
2018-09-22T04:11:36.493Z,14.12
2018-09-22T04:14:06.090Z,14.18
2018-09-22T04:16:34.378Z,13.82
2018-09-22T04:19:02.638Z,14.02
2018-09-22T04:21:30.883Z,14.26
2018-09-22T04:24:02.896Z,14.53
2018-09-22T04:26:31.212Z,14.33
2018-09-22T04:28:59.409Z,14.53
2018-09-22T04:31:27.655Z,14.61
2018-09-22T04:33:55.929Z,14.56
2018-09-22T04:36:24.163Z,14.55
2018-09-22T04:38:52.455Z,14.52
2018-09-22T04:41:20.714Z,14.52
2018-09-22T04:43:48.979Z,14.49
2018-09-22T04:46:17.215Z,14.52
2018-09-22T04:48:45.438Z,14.63
2018-09-22T04:51:13.707Z,14.61
2018-09-22T04:53:41.954Z,14.65
2018-09-22T04:56:10.191Z,14.32
2018-09-22T04:58:38.465Z,14.54
2018-09-22T05:01:06.919Z,14.31
2018-09-22T05:03:35.215Z,14.28
2018-09-22T05:06:03.484Z,14.16
2018-09-22T05:08:31.742Z,14.49
2018-09-22T05:11:00.007Z,14.26
2018-09-22T05:13:28.246Z,14.37
2018-09-22T05:15:56.810Z,14.16
2018-09-22T05:18:25.026Z,13.99
2018-09-22T05:20:53.285Z,13.82
2018-09-22T05:23:21.533Z,14.21
2018-09-22T05:25:49.779Z,14.07
2018-09-22T05:28:18.500Z,14.15
2018-09-22T05:30:46.785Z,14.34
2018-09-22T05:33:15.049Z,14.20
2018-09-22T05:35:43.294Z,14.49
2018-09-22T05:38:11.524Z,14.23
2018-09-22T05:40:39.776Z,14.28
2018-09-22T05:43:08.006Z,14.01
2018-09-22T05:45:36.247Z,14.33
2018-09-22T05:48:04.601Z,14.19
2018-09-22T05:50:32.894Z,14.57
2018-09-22T05:53:01.175Z,14.42
2018-09-22T05:55:30.500Z,14.48
2018-09-22T05:57:58.832Z,14.64
2018-09-22T06:00:27.066Z,14.40
2018-09-22T06:02:55.322Z,14.21
2018-09-22T06:05:23.578Z,14.22
2018-09-22T06:07:51.834Z,14.22
2018-09-22T06:10:20.107Z,14.33
2018-09-22T06:12:48.346Z,14.19
2018-09-22T06:15:16.632Z,14.04
2018-09-22T06:17:44.936Z,14.24
2018-09-22T06:20:13.178Z,14.24
2018-09-22T06:22:41.583Z,14.52
2018-09-22T06:25:09.967Z,14.33
2018-09-22T06:27:38.277Z,14.35
2018-09-22T06:30:08.670Z,14.23
2018-09-22T06:32:36.932Z,14.15
2018-09-22T06:35:05.301Z,14.27
2018-09-22T06:37:33.583Z,14.18
2018-09-22T06:40:01.819Z,14.29
2018-09-22T06:42:30.207Z,14.30
2018-09-22T06:44:58.622Z,14.22
2018-09-22T06:47:26.918Z,13.95
2018-09-22T06:49:55.202Z,13.87
2018-09-22T06:52:25.566Z,14.26
2018-09-22T06:54:53.898Z,14.31
2018-09-22T06:57:23.151Z,14.07
2018-09-22T06:59:51.771Z,14.24
2018-09-22T07:02:20.061Z,14.12
2018-09-22T07:04:48.360Z,15.52
2018-09-22T07:07:16.730Z,16.41
2018-09-22T07:09:45.060Z,16.34
2018-09-22T07:12:13.384Z,15.98
2018-09-22T07:14:46.243Z,16.06
2018-09-22T07:17:14.585Z,16.52
2018-09-22T07:19:42.908Z,16.30
2018-09-22T07:22:16.394Z,16.48
2018-09-22T07:24:44.682Z,16.52
2018-09-22T07:27:12.978Z,16.76
2018-09-22T07:29:41.258Z,16.50
2018-09-22T07:32:09.634Z,16.55
2018-09-22T07:34:37.905Z,17.05
2018-09-22T07:37:06.186Z,17.41
2018-09-22T07:39:34.503Z,16.71
2018-09-22T07:42:03.185Z,16.47
2018-09-22T07:44:31.436Z,17.09
2018-09-22T07:46:59.734Z,17.19
2018-09-22T07:49:30.039Z,17.38
2018-09-22T07:51:58.296Z,16.74
2018-09-22T07:54:26.599Z,17.50
2018-09-22T07:56:54.847Z,16.93
2018-09-22T07:59:23.719Z,17.19
2018-09-22T08:01:52.015Z,16.84
2018-09-22T08:04:20.286Z,17.33
2018-09-22T08:06:49.489Z,17.48
2018-09-22T08:09:17.755Z,18.04
2018-09-22T08:11:46.094Z,18.19
2018-09-22T08:14:14.244Z,18.43
2018-09-22T08:16:42.507Z,17.70
2018-09-22T08:19:10.774Z,17.80
2018-09-22T08:21:39.020Z,17.89
2018-09-22T08:24:07.511Z,18.14
2018-09-22T08:26:36.155Z,17.98
2018-09-22T08:29:10.402Z,17.24
2018-09-22T08:31:38.686Z,18.05
2018-09-22T08:34:07.087Z,17.92
2018-09-22T08:36:35.546Z,17.90
2018-09-22T08:39:03.915Z,17.48
2018-09-22T08:41:32.182Z,17.53
2018-09-22T08:44:00.547Z,17.70
2018-09-22T08:46:28.780Z,18.19
2018-09-22T08:48:57.087Z,18.48
2018-09-22T08:51:27.497Z,18.34
2018-09-22T08:53:56.013Z,17.81
2018-09-22T08:56:24.471Z,18.00
2018-09-22T08:58:52.875Z,17.93
2018-09-22T09:01:21.176Z,18.40
2018-09-22T09:03:49.402Z,18.54
2018-09-22T09:06:17.671Z,18.69
2018-09-22T09:08:45.918Z,18.84
2018-09-22T09:11:14.202Z,18.59
2018-09-22T09:13:42.489Z,18.50
2018-09-22T09:16:10.730Z,18.91
2018-09-22T09:18:38.973Z,17.50
2018-09-22T09:21:07.497Z,17.82
2018-09-22T09:23:35.710Z,17.89
2018-09-22T09:26:04.007Z,17.98
2018-09-22T09:28:32.245Z,17.74
2018-09-22T09:31:00.474Z,17.59
2018-09-22T09:33:28.736Z,17.57
2018-09-22T09:35:56.966Z,17.53
2018-09-22T09:38:25.225Z,17.86
2018-09-22T09:40:53.541Z,17.74
2018-09-22T09:43:21.882Z,17.65
2018-09-22T09:45:50.110Z,17.71
2018-09-22T09:48:19.339Z,17.74
2018-09-22T09:50:49.812Z,17.87
2018-09-22T09:53:18.087Z,17.71
2018-09-22T09:55:46.310Z,17.70
2018-09-22T09:58:14.555Z,17.75
2018-09-22T10:00:45.291Z,17.92
2018-09-22T10:03:14.662Z,17.89
2018-09-22T10:05:43.131Z,17.84
2018-09-22T10:08:11.373Z,17.65
2018-09-22T10:10:39.646Z,17.88
2018-09-22T10:13:08.018Z,17.89
2018-09-22T10:15:36.265Z,17.86
2018-09-22T10:18:04.523Z,17.88
2018-09-22T10:20:32.753Z,18.04
2018-09-22T10:23:00.970Z,18.07
2018-09-22T10:25:29.222Z,17.96
2018-09-22T10:27:57.515Z,17.98
2018-09-22T10:30:25.801Z,18.11
2018-09-22T10:32:54.050Z,18.14
2018-09-22T10:35:22.729Z,18.23
2018-09-22T10:37:50.942Z,18.08
2018-09-22T10:40:19.179Z,18.24
2018-09-22T10:42:47.687Z,18.13
2018-09-22T10:45:15.962Z,18.12
2018-09-22T10:47:44.238Z,18.07
2018-09-22T10:50:12.461Z,17.84
2018-09-22T10:52:40.751Z,17.91
2018-09-22T10:55:08.938Z,18.07
2018-09-22T10:57:37.487Z,18.03
2018-09-22T11:00:05.786Z,18.04
2018-09-22T11:02:34.087Z,18.39
2018-09-22T11:05:02.446Z,18.62
2018-09-22T11:07:31.193Z,18.51
2018-09-22T11:09:59.449Z,18.42
2018-09-22T11:12:27.733Z,18.43
2018-09-22T11:14:56.051Z,18.51
2018-09-22T11:17:24.321Z,18.61
2018-09-22T11:19:52.559Z,18.69
2018-09-22T11:22:20.944Z,18.62
2018-09-22T11:24:49.168Z,18.58
2018-09-22T11:27:18.546Z,18.67
2018-09-22T11:29:46.769Z,18.80
2018-09-22T11:32:15.202Z,19.01
2018-09-22T11:34:43.445Z,18.90
2018-09-22T11:37:11.685Z,18.81
2018-09-22T11:39:39.927Z,18.85
2018-09-22T11:42:08.150Z,19.01
2018-09-22T11:44:36.390Z,18.99
2018-09-22T11:47:04.754Z,19.02
2018-09-22T11:49:32.973Z,19.16
2018-09-22T11:52:01.193Z,19.08
2018-09-22T11:54:29.425Z,19.15
2018-09-22T11:56:57.657Z,19.01
2018-09-22T11:59:25.916Z,19.28
2018-09-22T12:01:54.236Z,19.21
2018-09-22T12:04:22.442Z,19.29
2018-09-22T12:06:50.906Z,19.45
2018-09-22T12:09:18.935Z,19.35
2018-09-22T12:11:47.153Z,19.19
2018-09-22T12:14:15.363Z,19.27
2018-09-22T12:16:43.594Z,19.04
2018-09-22T12:19:11.845Z,19.12
2018-09-22T12:21:40.121Z,18.99
2018-09-22T12:24:08.447Z,18.99
2018-09-22T12:26:36.713Z,18.85
2018-09-22T12:29:04.986Z,18.69
2018-09-22T12:31:33.230Z,18.84
2018-09-22T12:34:01.465Z,18.85
2018-09-22T12:36:29.726Z,18.92
2018-09-22T12:38:57.950Z,18.75
2018-09-22T12:41:26.177Z,18.91
2018-09-22T12:43:54.421Z,18.93
2018-09-22T12:46:22.650Z,18.82
2018-09-22T12:48:50.878Z,19.01
2018-09-22T12:51:19.127Z,18.92
2018-09-22T12:53:47.729Z,19.03
2018-09-22T12:56:16.013Z,18.95
2018-09-22T12:58:44.254Z,19.17
2018-09-22T13:01:12.554Z,19.09
2018-09-22T13:03:40.883Z,18.86
2018-09-22T13:06:09.161Z,19.02
2018-09-22T13:08:37.445Z,19.17
2018-09-22T13:11:05.882Z,19.24
2018-09-22T13:13:34.175Z,19.09
2018-09-22T13:16:02.356Z,19.34
2018-09-22T13:18:30.561Z,19.32
2018-09-22T13:20:58.970Z,19.39
2018-09-22T13:23:27.313Z,19.45
2018-09-22T13:25:55.988Z,19.36
2018-09-22T13:28:24.457Z,19.34
2018-09-22T13:30:52.680Z,19.18
2018-09-22T13:33:21.656Z,19.12
2018-09-22T13:35:49.911Z,19.10
2018-09-22T13:38:18.221Z,19.13
2018-09-22T13:40:46.454Z,19.26
2018-09-22T13:43:14.690Z,19.31
2018-09-22T13:45:42.890Z,19.27
2018-09-22T13:48:11.182Z,19.21
2018-09-22T13:50:39.437Z,19.15
2018-09-22T13:53:07.673Z,19.12
2018-09-22T13:55:35.942Z,19.14
2018-09-22T13:58:05.308Z,19.09
2018-09-22T14:00:33.517Z,19.21
2018-09-22T14:03:01.735Z,19.25
2018-09-22T14:05:29.955Z,19.21
2018-09-22T14:07:58.233Z,19.25
2018-09-22T14:10:26.575Z,19.03
2018-09-22T14:12:54.761Z,19.03
2018-09-22T14:15:22.993Z,18.92
2018-09-22T14:17:51.234Z,18.48
2018-09-22T14:20:19.458Z,17.47
2018-09-22T14:22:47.686Z,16.55
2018-09-22T14:25:15.922Z,16.23
2018-09-22T14:27:44.169Z,15.90
2018-09-22T14:30:12.414Z,15.66
2018-09-22T14:32:40.683Z,15.36
2018-09-22T14:35:08.970Z,15.36
2018-09-22T14:37:37.233Z,15.34
2018-09-22T14:40:05.590Z,15.22
2018-09-22T14:42:33.810Z,15.35
2018-09-22T14:45:02.074Z,15.40
2018-09-22T14:47:30.299Z,15.45
2018-09-22T14:49:58.527Z,15.33
2018-09-22T14:52:26.746Z,15.51
2018-09-22T14:54:54.978Z,15.40
2018-09-22T14:57:23.193Z,15.44
2018-09-22T14:59:51.405Z,15.38
2018-09-22T15:02:19.645Z,15.26
2018-09-22T15:04:47.871Z,15.25
2018-09-22T15:07:16.093Z,15.30
2018-09-22T15:09:44.322Z,15.21
2018-09-22T15:12:12.546Z,15.07
2018-09-22T15:14:40.773Z,14.82
2018-09-22T15:17:09.006Z,14.99
2018-09-22T15:19:37.307Z,15.10
2018-09-22T15:22:05.633Z,15.08
2018-09-22T15:24:33.881Z,15.23
2018-09-22T15:27:02.118Z,15.22
2018-09-22T15:29:30.333Z,15.13
2018-09-22T15:31:58.571Z,15.07
2018-09-22T15:37:00.426Z,14.96
2018-09-22T15:39:28.636Z,14.91
2018-09-22T15:41:56.874Z,15.02
2018-09-22T15:44:25.161Z,15.23
2018-09-22T15:46:53.400Z,15.47
2018-09-22T15:49:21.641Z,15.53
2018-09-22T15:51:49.909Z,15.43
2018-09-22T15:54:18.146Z,15.22
2018-09-22T15:56:46.366Z,15.14
2018-09-22T15:59:14.637Z,15.20
2018-09-22T16:01:42.918Z,14.98
2018-09-22T16:04:11.154Z,15.20
2018-09-22T16:06:39.380Z,15.11
2018-09-22T16:09:08.819Z,15.29
2018-09-22T16:11:37.127Z,15.47
2018-09-22T16:14:05.385Z,15.44
2018-09-22T16:16:33.811Z,15.51
2018-09-22T16:19:02.278Z,15.23
2018-09-22T16:21:30.757Z,15.45
2018-09-22T16:23:58.983Z,15.59
2018-09-22T16:26:27.218Z,15.71
2018-09-22T16:28:55.476Z,15.60
2018-09-22T16:31:23.918Z,15.55
2018-09-22T16:33:52.188Z,15.72
2018-09-22T16:36:20.650Z,15.68
2018-09-22T16:38:48.990Z,15.41
2018-09-22T16:41:17.339Z,15.34
2018-09-22T16:43:45.553Z,15.19
2018-09-22T16:46:13.795Z,15.08
2018-09-22T16:48:42.074Z,15.47
2018-09-22T16:51:10.312Z,15.43
2018-09-22T16:53:38.546Z,15.18
2018-09-22T16:56:06.810Z,15.16
2018-09-22T16:58:35.109Z,15.29
2018-09-22T17:01:03.305Z,15.14
2018-09-22T17:03:31.526Z,15.21
2018-09-22T17:05:59.770Z,15.05
2018-09-22T17:08:38.113Z,14.96
2018-09-22T17:11:06.339Z,15.11
2018-09-22T17:13:34.583Z,15.08
2018-09-22T17:16:02.887Z,14.88
2018-09-22T17:18:31.103Z,14.87
2018-09-22T17:20:59.326Z,15.01
2018-09-22T17:23:27.570Z,14.88
2018-09-22T17:25:55.820Z,14.78
2018-09-22T17:28:24.061Z,14.76
2018-09-22T17:30:52.533Z,14.65
2018-09-22T17:33:20.867Z,14.48
2018-09-22T17:35:49.181Z,14.73
2018-09-22T17:38:17.418Z,14.47
2018-09-22T17:40:45.655Z,14.52
2018-09-22T17:43:13.921Z,14.45
2018-09-22T17:45:42.129Z,14.43
2018-09-22T17:48:10.381Z,14.59
2018-09-22T17:50:38.605Z,14.51
2018-09-22T17:53:06.869Z,14.58
2018-09-22T17:55:35.138Z,14.61
2018-09-22T17:58:03.392Z,14.54
2018-09-22T18:00:31.650Z,14.65
2018-09-22T18:02:59.893Z,14.54
2018-09-22T18:05:28.158Z,14.52
2018-09-22T18:07:56.419Z,14.47
2018-09-22T18:10:24.658Z,14.68
2018-09-22T18:12:52.910Z,14.66
2018-09-22T18:15:21.153Z,14.64
2018-09-22T18:17:49.411Z,14.51
2018-09-22T18:20:17.662Z,14.60
2018-09-22T18:22:45.894Z,14.49
2018-09-22T18:25:14.282Z,14.64
2018-09-22T18:27:42.529Z,14.61
2018-09-22T18:30:10.779Z,14.58
2018-09-22T18:32:38.993Z,14.43
2018-09-22T18:35:07.271Z,14.61
2018-09-22T18:37:35.506Z,14.51
2018-09-22T18:40:03.801Z,14.62
2018-09-22T18:42:32.033Z,14.63
2018-09-22T18:45:00.328Z,14.63
2018-09-22T18:47:28.618Z,14.48
2018-09-22T18:49:56.944Z,14.60
2018-09-22T18:52:25.258Z,14.49
2018-09-22T18:54:53.505Z,14.51
2018-09-22T18:57:21.763Z,14.45
2018-09-22T18:59:49.989Z,14.52
2018-09-22T19:02:18.228Z,14.56
2018-09-22T19:04:46.433Z,14.56
2018-09-22T19:07:14.662Z,14.64
2018-09-22T19:09:42.941Z,14.49
2018-09-22T19:12:11.191Z,14.61
2018-09-22T19:14:45.149Z,14.48
2018-09-22T19:17:16.690Z,14.47
2018-09-22T19:19:49.878Z,14.54
2018-09-22T19:22:21.869Z,14.53
2018-09-22T19:24:53.963Z,14.43
2018-09-22T19:27:28.400Z,14.26
2018-09-22T19:31:02.637Z,14.32
2018-09-22T19:33:34.394Z,14.21
2018-09-22T19:36:37.794Z,14.09
2018-09-22T19:39:12.455Z,14.06
2018-09-22T19:41:48.369Z,14.19
2018-09-22T19:44:21.338Z,14.02
2018-09-22T19:48:56.850Z,14.13
2018-09-22T19:51:27.126Z,14.00
2018-09-22T19:53:56.421Z,13.98
2018-09-22T19:56:24.664Z,14.11
2018-09-22T19:58:52.917Z,14.00
2018-09-22T20:01:21.155Z,14.13
2018-09-22T20:03:49.415Z,14.03
2018-09-22T20:06:17.674Z,13.94
2018-09-22T20:08:45.945Z,13.94
2018-09-22T20:11:14.201Z,13.92
2018-09-22T20:13:42.527Z,14.01
2018-09-22T20:16:10.769Z,13.97
2018-09-22T20:18:39.022Z,13.98
2018-09-22T20:21:07.273Z,13.86
2018-09-22T20:23:35.501Z,13.61
2018-09-22T20:26:03.803Z,13.59
2018-09-22T20:28:32.804Z,13.80
2018-09-22T20:31:01.925Z,13.87
2018-09-22T20:33:30.212Z,13.81
2018-09-22T20:35:58.454Z,13.96
2018-09-22T20:38:26.670Z,14.02
2018-09-22T20:40:54.934Z,14.07
2018-09-22T20:43:23.178Z,13.98
2018-09-22T20:45:51.415Z,13.40
2018-09-22T20:48:19.677Z,13.74
2018-09-22T20:50:47.909Z,13.69
2018-09-22T20:53:16.161Z,13.61
2018-09-22T20:55:44.866Z,13.68
2018-09-22T20:58:13.131Z,13.81
2018-09-22T21:00:41.404Z,13.74
2018-09-22T21:03:09.625Z,13.75
2018-09-22T21:05:37.891Z,13.99
2018-09-22T21:08:06.293Z,13.94
2018-09-22T21:10:34.548Z,13.91
2018-09-22T21:13:02.778Z,13.97
2018-09-22T21:15:31.022Z,13.92
2018-09-22T21:17:59.260Z,13.88
2018-09-22T21:20:27.502Z,13.94
2018-09-22T21:22:55.721Z,14.01
2018-09-22T21:25:23.955Z,14.14
2018-09-22T21:27:52.192Z,13.94
2018-09-22T21:30:20.416Z,13.79
2018-09-22T21:32:48.639Z,13.65
2018-09-22T21:35:16.922Z,13.66
2018-09-22T21:37:45.144Z,13.74
2018-09-22T21:40:13.394Z,13.62
2018-09-22T21:42:41.621Z,13.61
2018-09-22T21:45:09.855Z,13.66
2018-09-22T21:47:38.101Z,13.68
2018-09-22T21:50:06.359Z,13.86
2018-09-22T21:52:34.594Z,13.67
2018-09-22T21:55:02.860Z,13.77
2018-09-22T21:57:31.134Z,13.95
2018-09-22T21:59:59.542Z,13.85
2018-09-22T22:02:27.900Z,13.82
2018-09-22T22:04:56.319Z,13.78
2018-09-22T22:07:24.570Z,13.37
2018-09-22T22:09:52.785Z,13.34
2018-09-22T22:12:21.018Z,13.63
2018-09-22T22:14:49.264Z,13.52
2018-09-22T22:17:17.584Z,13.62
2018-09-22T22:19:46.843Z,13.58
2018-09-22T22:22:15.372Z,13.40
2018-09-22T22:24:43.691Z,13.38
2018-09-22T22:27:11.927Z,13.37
2018-09-22T22:29:40.179Z,13.29
2018-09-22T22:32:08.402Z,13.31
2018-09-22T22:34:36.663Z,13.37
2018-09-22T22:37:04.874Z,13.17
2018-09-22T22:39:33.097Z,13.29
2018-09-22T22:42:01.432Z,13.24
2018-09-22T22:44:29.722Z,13.28
2018-09-22T22:46:58.014Z,13.35
2018-09-22T22:49:26.299Z,13.38
2018-09-22T22:51:54.570Z,13.59
2018-09-22T22:54:22.809Z,13.54
2018-09-22T22:56:51.161Z,13.56
2018-09-22T22:59:19.470Z,13.54
2018-09-22T23:01:47.841Z,13.56
2018-09-22T23:04:16.087Z,13.60
2018-09-22T23:06:44.365Z,13.73
2018-09-22T23:09:12.605Z,13.64
2018-09-22T23:11:40.865Z,13.57
2018-09-22T23:14:09.266Z,13.48
2018-09-22T23:16:37.522Z,13.39
2018-09-22T23:19:05.976Z,13.52
2018-09-22T23:21:34.210Z,13.64
2018-09-22T23:24:02.447Z,13.56
2018-09-22T23:26:30.704Z,13.67
2018-09-22T23:28:58.932Z,13.57
2018-09-22T23:31:27.183Z,13.73
2018-09-22T23:33:55.434Z,13.72
2018-09-22T23:36:23.710Z,13.57
2018-09-22T23:38:51.970Z,13.65
2018-09-22T23:41:20.239Z,13.63
2018-09-22T23:43:48.460Z,13.76
2018-09-22T23:46:16.799Z,13.81
2018-09-22T23:48:45.034Z,13.86
2018-09-22T23:51:13.293Z,13.30
2018-09-22T23:53:41.518Z,13.66
2018-09-22T23:56:09.782Z,13.56
2018-09-22T23:58:38.037Z,13.51
